Terminal Aerodrome Forecast
Issued by NWS Grand Forks, ND

Home | Current Version | Previous Version | Graphics & Text | Print | Product List | Glossary On
Versions: 1 2 3 4 5 6 7 8 9 10 11 12 13
000
FTUS43 KFGF 270500
TAFGFK
TAF
KGFK 270520Z 2706/2806 35007KT P6SM BKN010
     FM270800 32004KT P6SM SCT250
     FM271000 21006KT P6SM BKN050
     FM271200 24007KT P6SM OVC015
     FM280300 34007KT P6SM OVC025=

USA.gov is the U.S. government's official web portal to all federal, state and local government web resources and services.